Big Bear Station Historical Data
Daily Summary for June 13, 2017 Units:  English    Metric   Both
« Previous Day
Next Day »
Daily Weekly Monthly Yearly Custom
  High: Low: Average:
Temperature: 77.7 °F 34.9 °F 55.4 °F
Dew Point: 42.8 °F 12.2 °F 29.3 °F
Humidity: 73 % 15 % 40 %
Wind Speed: 7.3 mph 0.0 mph 2 mph
Wind Gust: -999.0 mph - -
Wind:- - WSW
Pressure: 30.15 in 30.11 in -
Precipitation: 0.00 in    
Historical Graphs
 
 
Tabular Data for June 13, 2017
Time Temperature Dew Point Pressure Wind Wind Speed Wind Gust Humidity Rainfall Rate (Hourly)
00:08 38.3 °F 24.8 °F 30.11 in SSE 1.7 mph -999.0 mph 58 % 0 in
00:23 38.3 °F 27.2 °F 30.11 in South 2.2 mph -999.0 mph 64 % 0 in
00:38 37.9 °F 20.4 °F 30.11 in South 2.7 mph -999.0 mph 49 % 0 in
00:54 37.9 °F 23.2 °F 30.11 in SSE 2.2 mph -999.0 mph 55 % 0 in
01:09 38.8 °F 24.0 °F 30.11 in SSW 2.2 mph -999.0 mph 55 % 0 in
01:24 38.3 °F 19.3 °F 30.11 in Calm   -999.0 mph 46 % 0 in
01:39 37.9 °F 17.4 °F 30.11 in Calm   -999.0 mph 43 % 0 in
01:54 37.2 °F 16.2 °F 30.11 in SSE 1.7 mph -999.0 mph 42 % 0 in
02:10 38.1 °F 18.6 °F 30.11 in South 2.7 mph -999.0 mph 45 % 0 in
02:25 38.1 °F 15.9 °F 30.11 in ESE 2.2 mph -999.0 mph 40 % 0 in
02:40 38.3 °F 16.6 °F 30.11 in ESE 3.2 mph -999.0 mph 41 % 0 in
02:55 38.3 °F 16.1 °F 30.11 in SSE 2.7 mph -999.0 mph 40 % 0 in
03:26 37.9 °F 15.7 °F 30.11 in ESE 2.7 mph -999.0 mph 40 % 0 in
03:41 37.8 °F 15.0 °F 30.11 in SSE 2.2 mph -999.0 mph 39 % 0 in
03:56 37.6 °F 15.4 °F 30.11 in Calm   -999.0 mph 40 % 0 in
04:12 38.1 °F 16.5 °F 30.11 in South 2.2 mph -999.0 mph 41 % 0 in
04:27 38.5 °F 16.2 °F 30.11 in SSE 2.7 mph -999.0 mph 40 % 0 in
04:42 38.1 °F 17.6 °F 30.11 in SE 2.7 mph -999.0 mph 43 % 0 in
04:57 37.2 °F 16.2 °F 30.11 in South 1.7 mph -999.0 mph 42 % 0 in
05:12 36.7 °F 21.6 °F 30.11 in SSE 2.2 mph -999.0 mph 54 % 0 in
05:28 36.5 °F 23.5 °F 30.12 in Calm   -999.0 mph 59 % 0 in
05:43 36.1 °F 21.5 °F 30.12 in Calm   -999.0 mph 55 % 0 in
05:58 35.4 °F 19.1 °F 30.12 in Calm   -999.0 mph 51 % 0 in
06:13 34.9 °F 21.6 °F 30.13 in Calm   -999.0 mph 58 % 0 in
06:28 35.4 °F 25.9 °F 30.13 in Calm   -999.0 mph 68 % 0 in
06:44 36.0 °F 28.2 °F 30.13 in Calm   -999.0 mph 73 % 0 in
06:59 36.5 °F 27.6 °F 30.13 in Calm   -999.0 mph 70 % 0 in
07:14 38.3 °F 27.6 °F 30.13 in Calm   -999.0 mph 65 % 0 in
07:29 39.2 °F 28.8 °F 30.13 in Calm   -999.0 mph 66 % 0 in
07:44 40.3 °F 28.7 °F 30.14 in Calm   -999.0 mph 63 % 0 in
08:00 41.7 °F 31.2 °F 30.14 in Calm   -999.0 mph 66 % 0 in
08:16 44.6 °F 30.7 °F 30.14 in Calm   -999.0 mph 58 % 0 in
08:31 47.1 °F 28.9 °F 30.14 in Calm   -999.0 mph 49 % 0 in
08:47 49.5 °F 32.6 °F 30.14 in NW 2.2 mph -999.0 mph 52 % 0 in
09:02 52.2 °F 29.8 °F 30.14 in NW 2.2 mph -999.0 mph 42 % 0 in
09:17 53.2 °F 28.9 °F 30.14 in North 2.7 mph -999.0 mph 39 % 0 in
09:32 55.6 °F 29.7 °F 30.14 in NNW 1.7 mph -999.0 mph 37 % 0 in
09:47 58.1 °F 30.6 °F 30.14 in Calm   -999.0 mph 35 % 0 in
10:03 60.1 °F 12.2 °F 30.13 in Calm   -999.0 mph 15 % 0 in
10:18 62.2 °F 15.4 °F 30.13 in NW 3.7 mph -999.0 mph 16 % 0 in
10:33 63.0 °F 27.6 °F 30.13 in NNW 3.7 mph -999.0 mph 26 % 0 in
10:48 64.2 °F 24.5 °F 30.13 in NW 2.7 mph -999.0 mph 22 % 0 in
11:03 65.1 °F 28.4 °F 30.13 in NW 4.2 mph -999.0 mph 25 % 0 in
11:19 66.0 °F 30.1 °F 30.14 in NW 3.2 mph -999.0 mph 26 % 0 in
11:34 67.5 °F 33.2 °F 30.14 in NNE 4.2 mph -999.0 mph 28 % 0 in
11:50 69.3 °F 27.7 °F 30.14 in NNW 4.7 mph -999.0 mph 21 % 0 in
12:05 70.7 °F 32.1 °F 30.14 in WNW 4.7 mph -999.0 mph 24 % 0 in
12:21 71.6 °F 30.7 °F 30.14 in WNW 4.2 mph -999.0 mph 22 % 0 in
12:36 73.0 °F 35.1 °F 30.15 in NW 4.2 mph -999.0 mph 25 % 0 in
12:51 73.8 °F 35.8 °F 30.15 in North 4.7 mph -999.0 mph 25 % 0 in
13:07 73.0 °F 34.1 °F 30.15 in NW 4.7 mph -999.0 mph 24 % 0 in
13:22 74.1 °F 36.0 °F 30.15 in NNE 3.2 mph -999.0 mph 25 % 0 in
13:37 73.8 °F 37.7 °F 30.15 in WNW 4.7 mph -999.0 mph 27 % 0 in
13:53 74.5 °F 37.4 °F 30.15 in WNW 5.3 mph -999.0 mph 26 % 0 in
14:08 75.6 °F 37.3 °F 30.14 in NNE 3.7 mph -999.0 mph 25 % 0 in
14:24 74.8 °F 36.6 °F 30.14 in NNW 5.3 mph -999.0 mph 25 % 0 in
14:39 75.2 °F 37.0 °F 30.15 in NNW 3.7 mph -999.0 mph 25 % 0 in
14:54 74.8 °F 36.6 °F 30.14 in NW 4.7 mph -999.0 mph 25 % 0 in
15:09 74.8 °F 37.6 °F 30.14 in NNW 3.7 mph -999.0 mph 26 % 0 in
15:25 74.8 °F 35.6 °F 30.14 in NNW 7.3 mph -999.0 mph 24 % 0 in
15:40 74.7 °F 35.5 °F 30.14 in NW 4.2 mph -999.0 mph 24 % 0 in
15:55 74.1 °F 36.0 °F 30.14 in NW 4.2 mph -999.0 mph 25 % 0 in
16:10 74.7 °F 29.7 °F 30.14 in West 4.7 mph -999.0 mph 19 % 0 in
16:26 73.6 °F 39.4 °F 30.14 in NW 4.2 mph -999.0 mph 29 % 0 in
16:41 75.9 °F 40.5 °F 30.14 in NW 4.2 mph -999.0 mph 28 % 0 in
16:57 77.7 °F 42.0 °F 30.13 in NNW 4.2 mph -999.0 mph 28 % 0 in
17:12 77.2 °F 39.7 °F 30.13 in NNW 3.7 mph -999.0 mph 26 % 0 in
17:27 77.0 °F 41.4 °F 30.13 in NNW 2.7 mph -999.0 mph 28 % 0 in
17:42 76.6 °F 42.0 °F 30.13 in WNW 2.2 mph -999.0 mph 29 % 0 in
17:58 76.5 °F 42.8 °F 30.13 in SSW 1.7 mph -999.0 mph 30 % 0 in
18:13 74.8 °F 41.3 °F 30.13 in West 3.7 mph -999.0 mph 30 % 0 in
18:28 74.7 °F 41.2 °F 30.13 in SE 1.7 mph -999.0 mph 30 % 0 in
18:43 73.9 °F 40.5 °F 30.12 in North 1.1 mph -999.0 mph 30 % 0 in
18:59 72.1 °F 40.6 °F 30.12 in Calm   -999.0 mph 32 % 0 in
19:14 69.8 °F 40.2 °F 30.12 in Calm   -999.0 mph 34 % 0 in
19:29 65.1 °F 39.5 °F 30.12 in Calm   -999.0 mph 39 % 0 in
19:44 62.8 °F 38.7 °F 30.13 in Calm   -999.0 mph 41 % 0 in
20:00 59.5 °F 38.7 °F 30.13 in Calm   -999.0 mph 46 % 0 in
20:15 56.8 °F 37.8 °F 30.13 in Calm   -999.0 mph 49 % 0 in
20:30 55.4 °F 37.1 °F 30.13 in Calm   -999.0 mph 50 % 0 in
20:45 54.5 °F 34.1 °F 30.14 in SSE 1.7 mph -999.0 mph 46 % 0 in
21:01 53.8 °F 31.8 °F 30.14 in Calm   -999.0 mph 43 % 0 in
21:16 52.2 °F 29.8 °F 30.14 in Calm   -999.0 mph 42 % 0 in
21:47 50.0 °F 28.9 °F 30.15 in Calm   -999.0 mph 44 % 0 in
22:02 49.1 °F 27.6 °F 30.15 in Calm   -999.0 mph 43 % 0 in
22:17 48.9 °F 27.9 °F 30.15 in Calm   -999.0 mph 44 % 0 in
22:32 48.2 °F 27.3 °F 30.15 in Calm   -999.0 mph 44 % 0 in
22:48 47.7 °F 27.4 °F 30.14 in Calm   -999.0 mph 45 % 0 in
23:03 46.9 °F 27.7 °F 30.15 in Calm   -999.0 mph 47 % 0 in
23:18 46.0 °F 27.9 °F 30.15 in Calm   -999.0 mph 49 % 0 in
23:33 45.5 °F 27.9 °F 30.15 in Calm   -999.0 mph 50 % 0 in
23:48 45.0 °F 27.9 °F 30.15 in Calm   -999.0 mph 51 % 0 in
Big Bear CA Weather
Compliments of Weather Underground - 1.5 mb